createdAt,value
2022-08-30T00:02:35.350Z,100714
2022-08-30T00:08:26.927Z,100713
2022-08-30T00:14:18.029Z,100728
2022-08-30T00:20:10.079Z,100725
2022-08-30T00:26:02.674Z,100732
2022-08-30T00:31:52.794Z,100725
2022-08-30T00:37:44.372Z,100724
2022-08-30T00:43:38.100Z,100738
2022-08-30T00:49:29.031Z,100735
2022-08-30T00:55:20.428Z,100735
2022-08-30T01:01:11.859Z,100733
2022-08-30T01:07:02.930Z,100738
2022-08-30T01:12:54.214Z,100746
2022-08-30T01:18:50.154Z,100751
2022-08-30T01:24:41.810Z,100751
2022-08-30T01:30:33.050Z,100753
2022-08-30T01:36:24.147Z,100757
2022-08-30T01:42:14.841Z,100751
2022-08-30T01:48:09.148Z,100759
2022-08-30T01:54:04.124Z,100751
2022-08-30T01:59:54.740Z,100747
2022-08-30T02:05:46.100Z,100752
2022-08-30T02:11:38.400Z,100751
2022-08-30T02:17:30.888Z,100750
2022-08-30T02:23:23.373Z,100752
2022-08-30T02:29:14.231Z,100747
2022-08-30T02:35:04.809Z,100755
2022-08-30T02:40:56.384Z,100745
2022-08-30T02:46:47.001Z,100734
2022-08-30T02:52:38.388Z,100735
2022-08-30T02:58:33.915Z,100729
2022-08-30T03:04:30.283Z,100735
2022-08-30T03:10:20.457Z,100735
2022-08-30T03:16:11.336Z,100733
2022-08-30T03:22:03.665Z,100734
2022-08-30T03:27:54.668Z,100735
2022-08-30T03:33:45.051Z,100728
2022-08-30T03:39:36.084Z,100725
2022-08-30T03:45:28.340Z,100728
2022-08-30T03:51:19.701Z,100728
2022-08-30T03:57:24.425Z,100736
2022-08-30T04:03:14.755Z,100738
2022-08-30T04:09:06.279Z,100738
2022-08-30T04:14:57.791Z,100736
2022-08-30T04:20:48.961Z,100730
2022-08-30T04:26:41.913Z,100742
2022-08-30T04:32:31.899Z,100735
2022-08-30T04:38:31.677Z,100736
2022-08-30T04:44:23.037Z,100737
2022-08-30T04:50:13.695Z,100749
2022-08-30T04:56:05.415Z,100751
2022-08-30T05:01:57.890Z,100752
2022-08-30T05:07:49.171Z,100756
2022-08-30T05:13:41.641Z,100768
2022-08-30T05:19:32.844Z,100772
2022-08-30T05:25:24.953Z,100773
2022-08-30T05:31:17.128Z,100786
2022-08-30T05:37:08.273Z,100786
2022-08-30T05:43:01.718Z,100789
2022-08-30T05:48:52.996Z,100792
2022-08-30T05:54:43.780Z,100793
2022-08-30T06:00:35.675Z,100779
2022-08-30T06:06:33.126Z,100775
2022-08-30T06:12:25.729Z,100773
2022-08-30T06:18:17.203Z,100774
2022-08-30T06:24:17.423Z,100775
2022-08-30T06:31:50.969Z,100763
2022-08-30T06:37:44.576Z,100770
2022-08-30T06:43:36.771Z,100764
2022-08-30T06:49:30.136Z,100759
2022-08-30T06:55:24.937Z,100757
2022-08-30T07:01:16.421Z,100762
2022-08-30T07:07:09.923Z,100767
2022-08-30T07:13:03.925Z,100786
2022-08-30T07:18:56.910Z,100790
2022-08-30T07:24:49.493Z,100792
2022-08-30T07:30:42.930Z,100798
2022-08-30T07:36:36.859Z,100791
2022-08-30T07:42:29.057Z,100794
2022-08-30T07:48:22.284Z,100800
2022-08-30T07:54:13.617Z,100793
2022-08-30T08:00:04.988Z,100793
2022-08-30T08:05:56.592Z,100785
2022-08-30T08:11:48.918Z,100788
2022-08-30T08:17:41.289Z,100790
2022-08-30T08:23:33.506Z,100789
2022-08-30T08:29:24.769Z,100790
2022-08-30T08:35:18.227Z,100783
2022-08-30T08:41:08.786Z,100788
2022-08-30T08:47:01.049Z,100787
2022-08-30T08:52:56.649Z,100781
2022-08-30T08:58:48.577Z,100773
2022-08-30T09:04:39.049Z,100765
2022-08-30T09:10:52.471Z,100767
2022-08-30T09:16:42.257Z,100765
2022-08-30T09:22:33.368Z,100757
2022-08-30T09:28:28.141Z,100750
2022-08-30T09:34:20.082Z,100749
2022-08-30T09:40:13.780Z,100751
2022-08-30T09:46:08.313Z,100744
2022-08-30T09:52:08.780Z,100729
2022-08-30T09:57:59.790Z,100725
2022-08-30T10:03:51.652Z,100727
2022-08-30T10:09:44.350Z,100732
2022-08-30T10:15:35.317Z,100718
2022-08-30T10:21:28.252Z,100714
2022-08-30T10:27:20.628Z,100707
2022-08-30T10:33:12.002Z,100701
2022-08-30T10:39:06.352Z,100701
2022-08-30T10:45:03.203Z,100696
2022-08-30T10:50:55.022Z,100686
2022-08-30T10:56:47.695Z,100700
2022-08-30T11:02:43.299Z,100685
2022-08-30T11:08:34.187Z,100680
2022-08-30T11:14:28.543Z,100681
2022-08-30T11:20:21.310Z,100675
2022-08-30T11:26:23.414Z,100670
2022-08-30T11:32:15.074Z,100659
2022-08-30T11:38:07.201Z,100662
2022-08-30T11:44:04.223Z,100656
2022-08-30T11:49:57.715Z,100656
2022-08-30T11:55:51.118Z,100642
2022-08-30T12:01:54.085Z,100636
2022-08-30T12:07:45.154Z,100633
2022-08-30T12:13:39.186Z,100624
2022-08-30T12:19:32.337Z,100629
2022-08-30T12:25:24.938Z,100625
2022-08-30T12:31:18.060Z,100602
2022-08-30T12:37:10.739Z,100604
2022-08-30T12:43:09.381Z,100621
2022-08-30T12:49:01.058Z,100605
2022-08-30T12:54:55.136Z,100601
2022-08-30T13:00:48.307Z,100600
2022-08-30T13:06:44.150Z,100605
2022-08-30T13:12:35.975Z,100588
2022-08-30T13:18:30.643Z,100577
2022-08-30T13:24:27.353Z,100580
2022-08-30T13:30:18.005Z,100561
2022-08-30T13:36:12.712Z,100567
2022-08-30T13:42:35.689Z,100561
2022-08-30T13:48:27.982Z,100560
2022-08-30T13:54:17.867Z,100568
2022-08-30T14:00:12.155Z,100547
2022-08-30T14:06:35.962Z,100546
2022-08-30T14:13:12.207Z,100547
2022-08-30T14:19:04.848Z,100539
2022-08-30T14:24:58.610Z,100534
2022-08-30T14:30:54.424Z,100532
2022-08-30T14:36:46.369Z,100533
2022-08-30T14:42:37.821Z,100524
2022-08-30T14:48:31.852Z,100522
2022-08-30T14:54:23.828Z,100519
2022-08-30T15:00:16.783Z,100514
2022-08-30T15:06:13.886Z,100530
2022-08-30T15:12:06.054Z,100502
2022-08-30T15:18:00.084Z,100496
2022-08-30T15:23:54.551Z,100496
2022-08-30T15:29:45.801Z,100484
2022-08-30T15:35:41.725Z,100480
2022-08-30T15:41:32.362Z,100473
2022-08-30T15:47:32.497Z,100472
2022-08-30T15:53:24.844Z,100457
2022-08-30T15:59:16.779Z,100453
2022-08-30T16:05:07.983Z,100459
2022-08-30T16:10:59.597Z,100465
2022-08-30T16:16:50.905Z,100457
2022-08-30T16:22:49.088Z,100460
2022-08-30T16:28:40.621Z,100445
2022-08-30T16:34:38.869Z,100454
2022-08-30T16:40:31.564Z,100442
2022-08-30T16:46:30.141Z,100437
2022-08-30T16:52:23.424Z,100440
2022-08-30T16:58:26.631Z,100428
2022-08-30T17:04:21.710Z,100434
2022-08-30T17:10:22.923Z,100443
2022-08-30T17:16:30.811Z,100447
2022-08-30T17:22:24.483Z,100447
2022-08-30T17:28:18.874Z,100460
2022-08-30T17:34:14.923Z,100458
2022-08-30T17:40:15.971Z,100465
2022-08-30T17:46:06.397Z,100466
2022-08-30T17:52:01.713Z,100474
2022-08-30T17:57:54.607Z,100484
2022-08-30T18:03:51.872Z,100488
2022-08-30T20:30:12.795Z,100585
2022-08-30T20:36:02.719Z,100587
2022-08-30T20:41:55.217Z,100585
2022-08-30T20:47:46.624Z,100579
2022-08-30T20:53:37.986Z,100583
2022-08-30T20:59:30.054Z,100582
2022-08-30T21:05:23.203Z,100574
2022-08-30T21:11:14.442Z,100594
2022-08-30T21:17:03.752Z,100600
2022-08-30T21:22:54.865Z,100597
2022-08-30T21:28:47.594Z,100599
2022-08-30T21:34:38.731Z,100605
2022-08-30T21:40:29.921Z,100614
2022-08-30T21:46:20.432Z,100620
2022-08-30T21:52:12.151Z,100625
2022-08-30T21:58:15.409Z,100643
2022-08-30T22:04:08.060Z,100646
2022-08-30T22:09:59.945Z,100636
2022-08-30T22:15:52.072Z,100645
2022-08-30T22:21:48.297Z,100648
2022-08-30T22:27:40.590Z,100649
2022-08-30T22:33:31.998Z,100653
2022-08-30T22:39:23.711Z,100648
2022-08-30T22:45:17.226Z,100652
2022-08-30T22:51:07.211Z,100646
2022-08-30T22:56:59.244Z,100656
2022-08-30T23:02:56.645Z,100662
2022-08-30T23:08:48.470Z,100660
2022-08-30T23:14:38.876Z,100664
2022-08-30T23:20:29.961Z,100672
2022-08-30T23:26:22.004Z,100683
2022-08-30T23:32:13.245Z,100680
2022-08-30T23:38:04.544Z,100676
2022-08-30T23:43:57.170Z,100671
2022-08-30T23:49:47.794Z,100662
2022-08-30T23:55:38.815Z,100653
